sensor_id;sensor_type;location;lat;lon;timestamp;pressure;altitude;pressure_sealevel;temperature
71807;BMP280;59655;42.590;23.364;2024-02-23T00:01:22;91092.97;;;6.94
71807;BMP280;59655;42.590;23.364;2024-02-23T00:03:47;91094.78;;;6.99
71807;BMP280;59655;42.590;23.364;2024-02-23T00:06:12;91094.03;;;6.98
71807;BMP280;59655;42.590;23.364;2024-02-23T00:08:39;91086.63;;;6.97
71807;BMP280;59655;42.590;23.364;2024-02-23T00:11:06;91072.25;;;6.98
71807;BMP280;59655;42.590;23.364;2024-02-23T00:13:31;91082.09;;;6.97
71807;BMP280;59655;42.590;23.364;2024-02-23T00:15:57;91087.84;;;6.88
71807;BMP280;59655;42.590;23.364;2024-02-23T00:18:22;91091.06;;;6.73
71807;BMP280;59655;42.590;23.364;2024-02-23T00:20:47;91102.16;;;6.79
71807;BMP280;59655;42.590;23.364;2024-02-23T00:23:13;91091.09;;;6.81
71807;BMP280;59655;42.590;23.364;2024-02-23T00:25:39;91093.94;;;6.83
71807;BMP280;59655;42.590;23.364;2024-02-23T00:28:06;91092.03;;;6.83
71807;BMP280;59655;42.590;23.364;2024-02-23T00:30:32;91082.38;;;6.86
71807;BMP280;59655;42.590;23.364;2024-02-23T00:32:57;91072.81;;;6.75
71807;BMP280;59655;42.590;23.364;2024-02-23T00:35:22;91074.59;;;6.80
71807;BMP280;59655;42.590;23.364;2024-02-23T00:37:48;91082.38;;;6.86
71807;BMP280;59655;42.590;23.364;2024-02-23T00:40:13;91079.00;;;6.57
71807;BMP280;59655;42.590;23.364;2024-02-23T00:42:38;91077.81;;;6.65
71807;BMP280;59655;42.590;23.364;2024-02-23T00:45:04;91062.63;;;6.79
71807;BMP280;59655;42.590;23.364;2024-02-23T00:47:30;91069.88;;;6.86
71807;BMP280;59655;42.590;23.364;2024-02-23T00:49:55;91072.91;;;6.90
71807;BMP280;59655;42.590;23.364;2024-02-23T00:52:21;91065.16;;;6.93
71807;BMP280;59655;42.590;23.364;2024-02-23T00:54:46;91074.00;;;6.95
71807;BMP280;59655;42.590;23.364;2024-02-23T00:57:12;91060.47;;;6.70
71807;BMP280;59655;42.590;23.364;2024-02-23T00:59:37;91048.94;;;6.81
71807;BMP280;59655;42.590;23.364;2024-02-23T01:02:02;91060.03;;;6.87
71807;BMP280;59655;42.590;23.364;2024-02-23T01:04:28;91057.63;;;6.89
71807;BMP280;59655;42.590;23.364;2024-02-23T01:06:53;91054.88;;;6.74
71807;BMP280;59655;42.590;23.364;2024-02-23T01:09:18;91061.13;;;6.63
71807;BMP280;59655;42.590;23.364;2024-02-23T01:11:48;91054.03;;;6.58
71807;BMP280;59655;42.590;23.364;2024-02-23T01:14:13;91059.69;;;6.62
71807;BMP280;59655;42.590;23.364;2024-02-23T01:16:39;91053.97;;;6.71
71807;BMP280;59655;42.590;23.364;2024-02-23T01:19:04;91047.88;;;6.76
71807;BMP280;59655;42.590;23.364;2024-02-23T01:21:29;91058.50;;;6.21
71807;BMP280;59655;42.590;23.364;2024-02-23T01:23:55;91052.97;;;6.53
71807;BMP280;59655;42.590;23.364;2024-02-23T01:26:22;91050.91;;;6.59
71807;BMP280;59655;42.590;23.364;2024-02-23T01:28:48;91042.22;;;6.72
71807;BMP280;59655;42.590;23.364;2024-02-23T01:31:13;91041.53;;;6.79
71807;BMP280;59655;42.590;23.364;2024-02-23T01:33:39;91041.16;;;6.75
71807;BMP280;59655;42.590;23.364;2024-02-23T01:36:05;91035.13;;;6.67
71807;BMP280;59655;42.590;23.364;2024-02-23T01:38:31;91039.06;;;6.74
71807;BMP280;59655;42.590;23.364;2024-02-23T01:41:00;91038.06;;;6.84
71807;BMP280;59655;42.590;23.364;2024-02-23T01:43:26;91035.19;;;6.75
71807;BMP280;59655;42.590;23.364;2024-02-23T01:45:52;91032.22;;;6.78
71807;BMP280;59655;42.590;23.364;2024-02-23T01:48:18;91029.25;;;6.82
71807;BMP280;59655;42.590;23.364;2024-02-23T01:50:44;91030.97;;;6.79
71807;BMP280;59655;42.590;23.364;2024-02-23T01:53:10;91035.22;;;6.82
71807;BMP280;59655;42.590;23.364;2024-02-23T01:55:40;91016.97;;;6.84
71807;BMP280;59655;42.590;23.364;2024-02-23T01:58:06;91014.16;;;6.82
71807;BMP280;59655;42.590;23.364;2024-02-23T02:00:31;91011.13;;;6.78
71807;BMP280;59655;42.590;23.364;2024-02-23T02:02:57;91013.41;;;6.74
71807;BMP280;59655;42.590;23.364;2024-02-23T02:05:23;90997.13;;;6.83
71807;BMP280;59655;42.590;23.364;2024-02-23T02:07:50;91004.31;;;6.83
71807;BMP280;59655;42.590;23.364;2024-02-23T02:10:19;91005.69;;;6.76
71807;BMP280;59655;42.590;23.364;2024-02-23T02:12:45;91000.75;;;6.73
71807;BMP280;59655;42.590;23.364;2024-02-23T02:15:10;91001.16;;;6.84
71807;BMP280;59655;42.590;23.364;2024-02-23T02:17:36;91004.34;;;6.62
71807;BMP280;59655;42.590;23.364;2024-02-23T02:20:02;90996.75;;;6.51
71807;BMP280;59655;42.590;23.364;2024-02-23T02:22:32;90999.13;;;6.69
71807;BMP280;59655;42.590;23.364;2024-02-23T02:24:58;91001.47;;;6.81
71807;BMP280;59655;42.590;23.364;2024-02-23T02:27:23;91001.75;;;6.69
71807;BMP280;59655;42.590;23.364;2024-02-23T02:29:50;90993.22;;;6.77
71807;BMP280;59655;42.590;23.364;2024-02-23T02:32:16;91017.91;;;6.66
71807;BMP280;59655;42.590;23.364;2024-02-23T02:34:42;91016.56;;;6.73
71807;BMP280;59655;42.590;23.364;2024-02-23T02:37:07;91002.16;;;6.74
71807;BMP280;59655;42.590;23.364;2024-02-23T02:39:33;91000.41;;;6.76
71807;BMP280;59655;42.590;23.364;2024-02-23T02:41:59;91015.38;;;6.53
71807;BMP280;59655;42.590;23.364;2024-02-23T02:44:24;91026.19;;;6.41
71807;BMP280;59655;42.590;23.364;2024-02-23T02:46:49;91015.72;;;6.49
71807;BMP280;59655;42.590;23.364;2024-02-23T02:49:15;91004.34;;;6.62
71807;BMP280;59655;42.590;23.364;2024-02-23T02:51:40;90997.53;;;6.66
71807;BMP280;59655;42.590;23.364;2024-02-23T02:54:05;91000.75;;;6.73
71807;BMP280;59655;42.590;23.364;2024-02-23T02:56:31;91024.22;;;6.63
71807;BMP280;59655;42.590;23.364;2024-02-23T02:58:56;91013.69;;;6.63
71807;BMP280;59655;42.590;23.364;2024-02-23T03:01:21;91015.97;;;6.66
71807;BMP280;59655;42.590;23.364;2024-02-23T03:03:47;91021.44;;;6.68
71807;BMP280;59655;42.590;23.364;2024-02-23T03:06:12;91015.13;;;6.72
71807;BMP280;59655;42.590;23.364;2024-02-23T03:08:38;91003.88;;;6.71
71807;BMP280;59655;42.590;23.364;2024-02-23T03:11:03;91010.34;;;6.62
71807;BMP280;59655;42.590;23.364;2024-02-23T03:13:28;91005.25;;;6.64
71807;BMP280;59655;42.590;23.364;2024-02-23T03:15:54;91012.78;;;6.60
71807;BMP280;59655;42.590;23.364;2024-02-23T03:18:19;90996.91;;;6.53
71807;BMP280;59655;42.590;23.364;2024-02-23T03:20:45;91008.34;;;6.55
71807;BMP280;59655;42.590;23.364;2024-02-23T03:23:11;91023.41;;;6.47
71807;BMP280;59655;42.590;23.364;2024-02-23T03:25:36;91020.41;;;6.43
71807;BMP280;59655;42.590;23.364;2024-02-23T03:28:02;91020.97;;;6.49
71807;BMP280;59655;42.590;23.364;2024-02-23T03:30:27;91015.75;;;6.57
71807;BMP280;59655;42.590;23.364;2024-02-23T03:32:52;91027.88;;;6.60
71807;BMP280;59655;42.590;23.364;2024-02-23T03:35:18;91025.38;;;6.54
71807;BMP280;59655;42.590;23.364;2024-02-23T03:37:43;91031.38;;;6.55
71807;BMP280;59655;42.590;23.364;2024-02-23T03:40:09;91022.44;;;6.37
71807;BMP280;59655;42.590;23.364;2024-02-23T03:42:35;91020.97;;;6.49
71807;BMP280;59655;42.590;23.364;2024-02-23T03:45:01;91020.31;;;6.56
71807;BMP280;59655;42.590;23.364;2024-02-23T03:47:26;91017.97;;;6.45
71807;BMP280;59655;42.590;23.364;2024-02-23T03:49:51;91025.00;;;6.50
71807;BMP280;59655;42.590;23.364;2024-02-23T03:52:17;91023.63;;;6.49
71807;BMP280;59655;42.590;23.364;2024-02-23T03:54:42;91020.28;;;6.48
71807;BMP280;59655;42.590;23.364;2024-02-23T03:57:07;91028.94;;;6.57
71807;BMP280;59655;42.590;23.364;2024-02-23T03:59:35;91018.69;;;6.53
71807;BMP280;59655;42.590;23.364;2024-02-23T04:02:01;91018.78;;;6.40
71807;BMP280;59655;42.590;23.364;2024-02-23T04:04:26;91023.03;;;6.43
71807;BMP280;59655;42.590;23.364;2024-02-23T04:06:52;91028.63;;;6.39
71807;BMP280;59655;42.590;23.364;2024-02-23T04:09:17;91018.41;;;6.36
71807;BMP280;59655;42.590;23.364;2024-02-23T04:11:42;91012.88;;;6.47
71807;BMP280;59655;42.590;23.364;2024-02-23T04:14:08;91012.56;;;6.51
71807;BMP280;59655;42.590;23.364;2024-02-23T04:16:33;91016.59;;;6.31
71807;BMP280;59655;42.590;23.364;2024-02-23T04:18:59;91019.47;;;6.40
71807;BMP280;59655;42.590;23.364;2024-02-23T04:21:25;91020.03;;;6.18
71807;BMP280;59655;42.590;23.364;2024-02-23T04:23:51;91018.50;;;6.22
71807;BMP280;59655;42.590;23.364;2024-02-23T04:26:18;91026.63;;;6.32
71807;BMP280;59655;42.590;23.364;2024-02-23T04:28:43;91030.88;;;6.35
71807;BMP280;59655;42.590;23.364;2024-02-23T04:31:09;91029.66;;;6.15
71807;BMP280;59655;42.590;23.364;2024-02-23T04:33:37;91035.63;;;6.16
71807;BMP280;59655;42.590;23.364;2024-02-23T04:36:03;91032.16;;;6.21
71807;BMP280;59655;42.590;23.364;2024-02-23T04:38:30;91036.94;;;6.22
71807;BMP280;59655;42.590;23.364;2024-02-23T04:40:56;91045.13;;;6.19
71807;BMP280;59655;42.590;23.364;2024-02-23T04:43:21;91031.88;;;6.11
71807;BMP280;59655;42.590;23.364;2024-02-23T04:45:48;91037.25;;;6.19
71807;BMP280;59655;42.590;23.364;2024-02-23T04:48:13;91043.59;;;6.23
71807;BMP280;59655;42.590;23.364;2024-02-23T04:50:39;91023.75;;;6.22
71807;BMP280;59655;42.590;23.364;2024-02-23T04:53:04;91038.66;;;6.20
71807;BMP280;59655;42.590;23.364;2024-02-23T04:55:29;91036.41;;;6.03
71807;BMP280;59655;42.590;23.364;2024-02-23T04:57:55;91039.78;;;6.11
71807;BMP280;59655;42.590;23.364;2024-02-23T05:00:21;91029.97;;;6.12
71807;BMP280;59655;42.590;23.364;2024-02-23T05:02:46;91033.72;;;6.16
71807;BMP280;59655;42.590;23.364;2024-02-23T05:05:11;91030.94;;;6.01
71807;BMP280;59655;42.590;23.364;2024-02-23T05:07:37;91046.03;;;6.00
71807;BMP280;59655;42.590;23.364;2024-02-23T05:10:03;91049.72;;;5.84
71807;BMP280;59655;42.590;23.364;2024-02-23T05:12:29;91049.66;;;5.97
71807;BMP280;59655;42.590;23.364;2024-02-23T05:14:54;91052.75;;;5.88
71807;BMP280;59655;42.590;23.364;2024-02-23T05:17:20;91055.53;;;6.03
71807;BMP280;59655;42.590;23.364;2024-02-23T05:19:45;91057.81;;;5.86
71807;BMP280;59655;42.590;23.364;2024-02-23T05:22:12;91043.72;;;5.97
71807;BMP280;59655;42.590;23.364;2024-02-23T05:24:37;91065.88;;;6.01
71807;BMP280;59655;42.590;23.364;2024-02-23T05:27:02;91068.94;;;5.92
71807;BMP280;59655;42.590;23.364;2024-02-23T05:29:28;91063.88;;;5.81
71807;BMP280;59655;42.590;23.364;2024-02-23T05:31:53;91043.41;;;6.00
71807;BMP280;59655;42.590;23.364;2024-02-23T05:34:19;91075.09;;;5.95
71807;BMP280;59655;42.590;23.364;2024-02-23T05:36:45;91062.19;;;5.83
71807;BMP280;59655;42.590;23.364;2024-02-23T05:39:15;91065.81;;;5.94
71807;BMP280;59655;42.590;23.364;2024-02-23T05:41:41;91065.25;;;6.09
71807;BMP280;59655;42.590;23.364;2024-02-23T05:44:07;91069.09;;;6.07
71807;BMP280;59655;42.590;23.364;2024-02-23T05:46:34;91071.78;;;6.15
71807;BMP280;59655;42.590;23.364;2024-02-23T05:49:00;91083.94;;;6.18
71807;BMP280;59655;42.590;23.364;2024-02-23T05:51:28;91075.13;;;6.16
71807;BMP280;59655;42.590;23.364;2024-02-23T05:53:54;91102.44;;;6.26
71807;BMP280;59655;42.590;23.364;2024-02-23T05:56:19;91094.03;;;6.27
71807;BMP280;59655;42.590;23.364;2024-02-23T05:58:46;91081.66;;;6.36
71807;BMP280;59655;42.590;23.364;2024-02-23T06:01:13;91085.09;;;6.31
71807;BMP280;59655;42.590;23.364;2024-02-23T06:03:39;91079.72;;;6.36
71807;BMP280;59655;42.590;23.364;2024-02-23T06:06:07;91091.53;;;6.43
71807;BMP280;59655;42.590;23.364;2024-02-23T06:08:36;91094.13;;;6.35
71807;BMP280;59655;42.590;23.364;2024-02-23T06:11:02;91093.44;;;6.42
71807;BMP280;59655;42.590;23.364;2024-02-23T06:13:29;91094.38;;;6.45
71807;BMP280;59655;42.590;23.364;2024-02-23T06:15:54;91097.31;;;6.41
71807;BMP280;59655;42.590;23.364;2024-02-23T06:18:19;91102.47;;;6.47
71807;BMP280;59655;42.590;23.364;2024-02-23T06:20:46;91113.00;;;6.47
71807;BMP280;59655;42.590;23.364;2024-02-23T06:23:11;91114.06;;;6.52
71807;BMP280;59655;42.590;23.364;2024-02-23T06:25:38;91106.03;;;6.57
71807;BMP280;59655;42.590;23.364;2024-02-23T06:28:03;91102.41;;;6.60
71807;BMP280;59655;42.590;23.364;2024-02-23T06:30:29;91109.91;;;6.56
71807;BMP280;59655;42.590;23.364;2024-02-23T06:32:54;91109.28;;;6.63
71807;BMP280;59655;42.590;23.364;2024-02-23T06:35:19;91107.59;;;6.53
71807;BMP280;59655;42.590;23.364;2024-02-23T06:37:47;91106.63;;;6.63
71807;BMP280;59655;42.590;23.364;2024-02-23T06:40:12;91113.50;;;6.66
71807;BMP280;59655;42.590;23.364;2024-02-23T06:42:37;91114.41;;;6.69
71807;BMP280;59655;42.590;23.364;2024-02-23T06:45:04;91108.13;;;6.72
71807;BMP280;59655;42.590;23.364;2024-02-23T06:47:30;91115.28;;;6.72
71807;BMP280;59655;42.590;23.364;2024-02-23T06:49:55;91106.50;;;6.69
71807;BMP280;59655;42.590;23.364;2024-02-23T06:52:20;91106.72;;;6.79
71807;BMP280;59655;42.590;23.364;2024-02-23T06:54:46;91119.75;;;6.77
71807;BMP280;59655;42.590;23.364;2024-02-23T06:57:11;91114.53;;;6.84
71807;BMP280;59655;42.590;23.364;2024-02-23T06:59:37;91115.41;;;6.87
71807;BMP280;59655;42.590;23.364;2024-02-23T07:02:02;91109.94;;;6.85
71807;BMP280;59655;42.590;23.364;2024-02-23T07:04:29;91110.72;;;6.93
71807;BMP280;59655;42.590;23.364;2024-02-23T07:06:55;91113.53;;;6.95
71807;BMP280;59655;42.590;23.364;2024-02-23T07:09:20;91102.28;;;6.95
71807;BMP280;59655;42.590;23.364;2024-02-23T07:11:46;91100.81;;;6.86
71807;BMP280;59655;42.590;23.364;2024-02-23T07:14:11;91106.28;;;6.88
71807;BMP280;59655;42.590;23.364;2024-02-23T07:16:40;91102.06;;;6.93
71807;BMP280;59655;42.590;23.364;2024-02-23T07:19:05;91107.22;;;6.98
71807;BMP280;59655;42.590;23.364;2024-02-23T07:21:30;91110.91;;;6.95
71807;BMP280;59655;42.590;23.364;2024-02-23T07:23:56;91096.63;;;6.90
71807;BMP280;59655;42.590;23.364;2024-02-23T07:26:21;91106.84;;;6.94
71807;BMP280;59655;42.590;23.364;2024-02-23T07:28:47;91108.16;;;7.01
71807;BMP280;59655;42.590;23.364;2024-02-23T07:31:14;91112.47;;;6.90
71807;BMP280;59655;42.590;23.364;2024-02-23T07:33:39;91091.22;;;6.96
71807;BMP280;59655;42.590;23.364;2024-02-23T07:36:05;91089.63;;;6.93
71807;BMP280;59655;42.590;23.364;2024-02-23T07:38:30;91093.34;;;6.98
71807;BMP280;59655;42.590;23.364;2024-02-23T07:40:55;91105.69;;;7.03
71807;BMP280;59655;42.590;23.364;2024-02-23T07:43:21;91114.63;;;7.00
71807;BMP280;59655;42.590;23.364;2024-02-23T07:45:46;91113.97;;;7.07
71807;BMP280;59655;42.590;23.364;2024-02-23T07:48:11;91112.03;;;7.07
71807;BMP280;59655;42.590;23.364;2024-02-23T07:50:37;91108.19;;;7.08
71807;BMP280;59655;42.590;23.364;2024-02-23T07:53:03;91095.00;;;7.08
71807;BMP280;59655;42.590;23.364;2024-02-23T07:55:29;91099.75;;;7.10
71807;BMP280;59655;42.590;23.364;2024-02-23T07:57:54;91100.47;;;7.10
71807;BMP280;59655;42.590;23.364;2024-02-23T08:00:26;91103.09;;;7.10
71807;BMP280;59655;42.590;23.364;2024-02-23T08:02:51;91098.53;;;7.11
71807;BMP280;59655;42.590;23.364;2024-02-23T08:05:16;91113.50;;;7.16
71807;BMP280;59655;42.590;23.364;2024-02-23T08:07:42;91124.59;;;7.15
71807;BMP280;59655;42.590;23.364;2024-02-23T08:10:08;91113.69;;;7.18
71807;BMP280;59655;42.590;23.364;2024-02-23T08:12:34;91117.41;;;7.23
71807;BMP280;59655;42.590;23.364;2024-02-23T08:14:59;91105.78;;;7.18
71807;BMP280;59655;42.590;23.364;2024-02-23T08:17:25;91091.84;;;7.18
71807;BMP280;59655;42.590;23.364;2024-02-23T08:19:51;91115.09;;;7.19
71807;BMP280;59655;42.590;23.364;2024-02-23T08:22:16;91110.69;;;7.14
71807;BMP280;59655;42.590;23.364;2024-02-23T08:24:41;91088.00;;;7.19
71807;BMP280;59655;42.590;23.364;2024-02-23T08:27:07;91103.53;;;7.22
71807;BMP280;59655;42.590;23.364;2024-02-23T08:29:32;91104.25;;;7.30
71807;BMP280;59655;42.590;23.364;2024-02-23T08:31:58;91124.53;;;7.36
71807;BMP280;59655;42.590;23.364;2024-02-23T08:34:23;91111.88;;;7.42
71807;BMP280;59655;42.590;23.364;2024-02-23T08:36:50;91113.69;;;7.47
71807;BMP280;59655;42.590;23.364;2024-02-23T08:39:15;91103.78;;;7.40
71807;BMP280;59655;42.590;23.364;2024-02-23T08:41:41;91121.19;;;7.43
71807;BMP280;59655;42.590;23.364;2024-02-23T08:44:06;91112.97;;;7.54
71807;BMP280;59655;42.590;23.364;2024-02-23T08:46:31;91101.41;;;7.57
71807;BMP280;59655;42.590;23.364;2024-02-23T08:48:57;91109.19;;;7.63
71807;BMP280;59655;42.590;23.364;2024-02-23T08:51:22;91094.91;;;7.66
71807;BMP280;59655;42.590;23.364;2024-02-23T08:53:47;91110.59;;;7.71
71807;BMP280;59655;42.590;23.364;2024-02-23T08:56:13;91120.13;;;7.74
71807;BMP280;59655;42.590;23.364;2024-02-23T08:58:40;91106.06;;;7.80
71807;BMP280;59655;42.590;23.364;2024-02-23T09:01:06;91095.16;;;7.83
71807;BMP280;59655;42.590;23.364;2024-02-23T09:03:31;91105.22;;;7.92
71807;BMP280;59655;42.590;23.364;2024-02-23T09:05:57;91110.69;;;8.02
71807;BMP280;59655;42.590;23.364;2024-02-23T09:08:22;91102.78;;;8.10
71807;BMP280;59655;42.590;23.364;2024-02-23T09:10:48;91112.81;;;8.11
71807;BMP280;59655;42.590;23.364;2024-02-23T09:13:13;91102.66;;;8.46
71807;BMP280;59655;42.590;23.364;2024-02-23T09:15:39;91100.88;;;8.41
71807;BMP280;59655;42.590;23.364;2024-02-23T09:18:04;91100.22;;;8.48
71807;BMP280;59655;42.590;23.364;2024-02-23T09:20:30;91103.72;;;8.58
71807;BMP280;59655;42.590;23.364;2024-02-23T09:22:55;91094.72;;;9.00
71807;BMP280;59655;42.590;23.364;2024-02-23T09:25:20;91119.16;;;9.39
71807;BMP280;59655;42.590;23.364;2024-02-23T09:27:46;91074.06;;;9.06
71807;BMP280;59655;42.590;23.364;2024-02-23T09:30:14;91108.09;;;9.02
71807;BMP280;59655;42.590;23.364;2024-02-23T09:32:40;91096.81;;;9.09
71807;BMP280;59655;42.590;23.364;2024-02-23T09:35:05;91078.63;;;9.13
71807;BMP280;59655;42.590;23.364;2024-02-23T09:37:32;91082.25;;;9.41
71807;BMP280;59655;42.590;23.364;2024-02-23T09:39:57;91097.81;;;9.77
71807;BMP280;59655;42.590;23.364;2024-02-23T09:42:23;91091.50;;;9.73
71807;BMP280;59655;42.590;23.364;2024-02-23T09:45:00;91095.41;;;9.64
71807;BMP280;59655;42.590;23.364;2024-02-23T09:47:29;91099.06;;;9.76
71807;BMP280;59655;42.590;23.364;2024-02-23T09:49:55;91101.19;;;9.70
71807;BMP280;59655;42.590;23.364;2024-02-23T09:52:21;91101.97;;;9.63
71807;BMP280;59655;42.590;23.364;2024-02-23T09:54:47;91101.25;;;9.62
71807;BMP280;59655;42.590;23.364;2024-02-23T09:57:13;91102.44;;;9.69
71807;BMP280;59655;42.590;23.364;2024-02-23T09:59:39;91104.41;;;9.69
71807;BMP280;59655;42.590;23.364;2024-02-23T10:02:09;91099.28;;;9.71
71807;BMP280;59655;42.590;23.364;2024-02-23T10:04:38;91099.97;;;9.71
71807;BMP280;59655;42.590;23.364;2024-02-23T10:07:05;91069.94;;;9.76
71807;BMP280;59655;42.590;23.364;2024-02-23T10:09:30;91072.91;;;9.80
71807;BMP280;59655;42.590;23.364;2024-02-23T10:11:56;91078.34;;;9.90
71807;BMP280;59655;42.590;23.364;2024-02-23T10:14:22;91066.50;;;9.91
71807;BMP280;59655;42.590;23.364;2024-02-23T10:16:47;91092.13;;;9.88
71807;BMP280;59655;42.590;23.364;2024-02-23T10:19:22;91075.69;;;9.90
71807;BMP280;59655;42.590;23.364;2024-02-23T10:21:47;91085.22;;;9.93
71807;BMP280;59655;42.590;23.364;2024-02-23T10:24:16;91076.28;;;10.06
71807;BMP280;59655;42.590;23.364;2024-02-23T10:26:44;91079.28;;;10.10
71807;BMP280;59655;42.590;23.364;2024-02-23T10:29:10;91086.69;;;10.12
71807;BMP280;59655;42.590;23.364;2024-02-23T10:31:36;91082.78;;;10.13
71807;BMP280;59655;42.590;23.364;2024-02-23T10:34:07;91075.19;;;10.17
71807;BMP280;59655;42.590;23.364;2024-02-23T10:36:36;91078.84;;;10.21
71807;BMP280;59655;42.590;23.364;2024-02-23T10:39:02;91076.06;;;10.19
71807;BMP280;59655;42.590;23.364;2024-02-23T10:41:32;91071.94;;;10.26
71807;BMP280;59655;42.590;23.364;2024-02-23T10:43:59;91073.66;;;10.31
71807;BMP280;59655;42.590;23.364;2024-02-23T10:46:26;91080.00;;;10.36
71807;BMP280;59655;42.590;23.364;2024-02-23T10:48:52;91074.47;;;10.41
71807;BMP280;59655;42.590;23.364;2024-02-23T10:51:19;91074.25;;;10.47
71807;BMP280;59655;42.590;23.364;2024-02-23T10:53:45;91063.09;;;10.48
71807;BMP280;59655;42.590;23.364;2024-02-23T10:56:11;91063.25;;;10.50
71807;BMP280;59655;42.590;23.364;2024-02-23T10:58:37;91063.44;;;10.52
71807;BMP280;59655;42.590;23.364;2024-02-23T11:01:06;91066.56;;;10.59
71807;BMP280;59655;42.590;23.364;2024-02-23T11:03:33;91063.72;;;10.57
71807;BMP280;59655;42.590;23.364;2024-02-23T11:06:00;91045.94;;;10.49
71807;BMP280;59655;42.590;23.364;2024-02-23T11:08:29;91058.34;;;10.64
71807;BMP280;59655;42.590;23.364;2024-02-23T11:10:55;91051.88;;;10.58
71807;BMP280;59655;42.590;23.364;2024-02-23T11:13:30;91045.69;;;10.55
71807;BMP280;59655;42.590;23.364;2024-02-23T11:16:05;91040.03;;;10.59
71807;BMP280;59655;42.590;23.364;2024-02-23T11:18:32;91046.22;;;10.61
71807;BMP280;59655;42.590;23.364;2024-02-23T11:20:59;91037.47;;;10.68
71807;BMP280;59655;42.590;23.364;2024-02-23T11:23:25;91043.88;;;10.65
71807;BMP280;59655;42.590;23.364;2024-02-23T11:28:28;91040.47;;;10.65
71807;BMP280;59655;42.590;23.364;2024-02-23T11:30:53;91036.97;;;10.62
71807;BMP280;59655;42.590;23.364;2024-02-23T11:33:26;91036.97;;;10.62
71807;BMP280;59655;42.590;23.364;2024-02-23T11:35:51;91027.22;;;10.65
71807;BMP280;59655;42.590;23.364;2024-02-23T11:38:18;91035.38;;;10.67
71807;BMP280;59655;42.590;23.364;2024-02-23T11:40:46;91031.84;;;10.82
71807;BMP280;59655;42.590;23.364;2024-02-23T11:43:13;91034.56;;;10.74
71807;BMP280;59655;42.590;23.364;2024-02-23T11:45:40;91009.22;;;10.81
71807;BMP280;59655;42.590;23.364;2024-02-23T11:48:06;91030.53;;;10.90
71807;BMP280;59655;42.590;23.364;2024-02-23T11:50:31;91031.06;;;10.89
71807;BMP280;59655;42.590;23.364;2024-02-23T11:52:57;91026.78;;;10.93
71807;BMP280;59655;42.590;23.364;2024-02-23T11:55:22;91014.00;;;11.00
71807;BMP280;59655;42.590;23.364;2024-02-23T11:57:48;91002.03;;;11.08
71807;BMP280;59655;42.590;23.364;2024-02-23T12:00:14;91002.47;;;11.14
71807;BMP280;59655;42.590;23.364;2024-02-23T12:02:40;91016.69;;;11.27
71807;BMP280;59655;42.590;23.364;2024-02-23T12:05:05;91016.28;;;11.30
71807;BMP280;59655;42.590;23.364;2024-02-23T12:07:32;91012.28;;;11.39
71807;BMP280;59655;42.590;23.364;2024-02-23T12:09:58;91016.28;;;11.30
71807;BMP280;59655;42.590;23.364;2024-02-23T12:12:25;91008.53;;;11.42
71807;BMP280;59655;42.590;23.364;2024-02-23T12:14:51;91008.88;;;11.56
71807;BMP280;59655;42.590;23.364;2024-02-23T12:17:16;91008.06;;;11.63
71807;BMP280;59655;42.590;23.364;2024-02-23T12:19:41;91009.22;;;11.70
71807;BMP280;59655;42.590;23.364;2024-02-23T12:22:07;91000.16;;;11.73
71807;BMP280;59655;42.590;23.364;2024-02-23T12:24:34;90989.56;;;11.82
71807;BMP280;59655;42.590;23.364;2024-02-23T12:27:00;90982.72;;;11.89
71807;BMP280;59655;42.590;23.364;2024-02-23T12:29:25;90991.81;;;11.96
71807;BMP280;59655;42.590;23.364;2024-02-23T12:32:02;90983.72;;;12.03
71807;BMP280;59655;42.590;23.364;2024-02-23T12:34:28;90959.41;;;12.07
71807;BMP280;59655;42.590;23.364;2024-02-23T12:36:55;90971.88;;;12.14
71807;BMP280;59655;42.590;23.364;2024-02-23T12:39:20;90967.13;;;12.32
71807;BMP280;59655;42.590;23.364;2024-02-23T12:41:46;90962.09;;;12.36
71807;BMP280;59655;42.590;23.364;2024-02-23T12:44:11;90955.13;;;12.41
71807;BMP280;59655;42.590;23.364;2024-02-23T12:46:37;90952.59;;;12.43
71807;BMP280;59655;42.590;23.364;2024-02-23T12:49:02;90957.22;;;12.42
71807;BMP280;59655;42.590;23.364;2024-02-23T12:51:28;90957.09;;;12.40
71807;BMP280;59655;42.590;23.364;2024-02-23T12:53:53;90955.53;;;12.47
71807;BMP280;59655;42.590;23.364;2024-02-23T12:56:19;90958.06;;;12.45
71807;BMP280;59655;42.590;23.364;2024-02-23T12:58:45;90964.22;;;12.67
71807;BMP280;59655;42.590;23.364;2024-02-23T13:01:11;90966.88;;;12.67
71807;BMP280;59655;42.590;23.364;2024-02-23T13:03:38;90965.78;;;12.80
71807;BMP280;59655;42.590;23.364;2024-02-23T13:06:05;90972.94;;;12.87
71807;BMP280;59655;42.590;23.364;2024-02-23T13:08:31;90970.69;;;12.83
71807;BMP280;59655;42.590;23.364;2024-02-23T13:10:57;90967.44;;;12.94
71807;BMP280;59655;42.590;23.364;2024-02-23T13:13:23;90964.91;;;12.97
71807;BMP280;59655;42.590;23.364;2024-02-23T13:15:50;90955.22;;;13.11
71807;BMP280;59655;42.590;23.364;2024-02-23T13:18:16;90960.09;;;13.14
71807;BMP280;59655;42.590;23.364;2024-02-23T13:20:41;90966.13;;;13.25
71807;BMP280;59655;42.590;23.364;2024-02-23T13:23:07;90969.22;;;13.31
71807;BMP280;59655;42.590;23.364;2024-02-23T13:25:37;90971.00;;;13.38
71807;BMP280;59655;42.590;23.364;2024-02-23T13:28:03;90967.59;;;13.47
71807;BMP280;59655;42.590;23.364;2024-02-23T13:30:30;90969.13;;;13.60
71807;BMP280;59655;42.590;23.364;2024-02-23T13:32:55;90973.97;;;13.73
71807;BMP280;59655;42.590;23.364;2024-02-23T13:35:21;90980.19;;;13.97
71807;BMP280;59655;42.590;23.364;2024-02-23T13:37:47;90983.78;;;14.33
71807;BMP280;59655;42.590;23.364;2024-02-23T13:40:12;90994.06;;;14.70
71807;BMP280;59655;42.590;23.364;2024-02-23T13:42:38;90982.66;;;15.03
71807;BMP280;59655;42.590;23.364;2024-02-23T13:45:05;90976.03;;;15.04
71807;BMP280;59655;42.590;23.364;2024-02-23T13:47:31;90976.38;;;14.98
71807;BMP280;59655;42.590;23.364;2024-02-23T13:49:56;90963.19;;;15.12
71807;BMP280;59655;42.590;23.364;2024-02-23T13:52:22;90979.81;;;15.22
71807;BMP280;59655;42.590;23.364;2024-02-23T13:54:47;90999.66;;;15.19
71807;BMP280;59655;42.590;23.364;2024-02-23T13:57:13;90999.19;;;15.11
71807;BMP280;59655;42.590;23.364;2024-02-23T13:59:38;90991.50;;;15.05
71807;BMP280;59655;42.590;23.364;2024-02-23T14:02:04;90991.03;;;15.09